Time;durP1;ratioP1;P1;durP2;ratioP2;P2;SDS_P1;SDS_P2;PMS_P1;PMS_P2;Temp;Humidity;BMP_temperature;BMP_pressure;BME280_temperature;BME280_humidity;BME280_pressure;Samples;Min_cycle;Max_cycle;Signal;HPM_P1;HPM_P2
2022/05/04 00:01:08;;;;;;;2.83;1.50;;;;;;;11.01;56.10;98725.88;5094435;28;20077;-59
2022/05/04 00:03:39;;;;;;;1.95;1.33;;;;;;;10.99;57.05;98713.91;5093966;28;20028;-59
2022/05/04 00:06:05;;;;;;;4.35;1.52;;;;;;;10.88;56.68;98703.94;5094183;28;20389;-59
2022/05/04 00:08:31;;;;;;;2.28;1.70;;;;;;;10.77;57.25;98703.53;5087696;28;20051;-59
2022/05/04 00:10:57;;;;;;;3.25;1.70;;;;;;;10.84;57.03;98721.34;5093800;28;20032;-59
2022/05/04 00:13:23;;;;;;;1.65;1.48;;;;;;;10.90;56.94;98720.25;5094208;28;20032;-59
2022/05/04 00:15:48;;;;;;;2.17;1.60;;;;;;;10.76;57.08;98725.13;5093968;28;20496;-59
2022/05/04 00:18:14;;;;;;;2.60;1.50;;;;;;;10.79;57.96;98733.63;5093860;28;20077;-59
2022/05/04 00:20:41;;;;;;;2.20;1.52;;;;;;;10.86;57.99;98736.84;5093593;28;20035;-58
2022/05/04 00:23:06;;;;;;;2.78;1.80;;;;;;;10.84;57.69;98728.28;5093567;28;20031;-59
2022/05/04 00:25:32;;;;;;;3.83;2.00;;;;;;;10.87;57.50;98730.75;5093583;28;20036;-58
2022/05/04 00:28:00;;;;;;;4.05;1.95;;;;;;;10.91;57.06;98726.31;5083144;28;20020;-59
2022/05/04 00:30:26;;;;;;;3.53;2.10;;;;;;;10.96;57.87;98726.97;5090712;28;20471;-60
2022/05/04 00:32:51;;;;;;;2.00;1.70;;;;;;;10.86;57.60;98724.72;5085096;28;20035;-61
2022/05/04 00:35:17;;;;;;;4.45;2.00;;;;;;;10.93;57.88;98738.31;5093710;28;20040;-60
2022/05/04 00:37:42;;;;;;;4.10;2.03;;;;;;;10.92;58.37;98734.00;5093674;28;20031;-60
2022/05/04 00:40:09;;;;;;;3.00;1.83;;;;;;;10.96;57.33;98740.78;5093294;28;20029;-60
2022/05/04 00:42:35;;;;;;;2.00;1.77;;;;;;;10.81;58.62;98742.19;5088670;28;20032;-59
2022/05/04 00:45:00;;;;;;;3.25;2.03;;;;;;;10.84;58.57;98741.22;5086247;28;20396;-59
2022/05/04 00:47:26;;;;;;;4.05;1.65;;;;;;;10.89;57.64;98736.72;5093367;28;20028;-58
2022/05/04 00:49:52;;;;;;;3.53;1.95;;;;;;;10.88;58.83;98742.81;5089695;28;20031;-59
2022/05/04 00:52:18;;;;;;;3.42;2.05;;;;;;;10.86;58.62;98734.25;5073010;28;20123;-59
2022/05/04 00:54:51;;;;;;;2.53;1.70;;;;;;;10.62;58.76;98702.38;5092317;28;20078;-59
2022/05/04 00:58:54;;;;;;;2.95;1.83;;;;;;;10.42;59.13;98670.28;5093205;28;20035;-59
2022/05/04 01:00:07;;;;;;;7.97;2.03;;;;;;;10.67;59.26;98729.78;5092784;28;20020;-59
2022/05/04 01:02:33;;;;;;;2.38;1.85;;;;;;;10.60;60.19;98733.47;5085982;28;20031;-59
2022/05/04 01:04:59;;;;;;;2.65;2.00;;;;;;;10.60;60.26;98733.47;5093021;28;20028;-59
2022/05/04 01:07:24;;;;;;;1.92;1.73;;;;;;;10.59;59.94;98728.34;5092994;28;20060;-59
2022/05/04 01:09:50;;;;;;;3.13;1.80;;;;;;;10.58;59.92;98727.50;5092821;28;20438;-59
2022/05/04 01:12:21;;;;;;;3.13;2.10;;;;;;;10.63;59.54;98728.19;5078058;28;20039;-58
2022/05/04 01:14:46;;;;;;;5.38;1.70;;;;;;;10.53;60.39;98727.69;5083795;28;20100;-58
2022/05/04 01:17:12;;;;;;;4.25;2.10;;;;;;;10.42;60.75;98719.47;5092750;28;20067;-58
2022/05/04 01:19:37;;;;;;;3.60;1.95;;;;;;;10.55;59.82;98726.81;5082611;28;20028;-58
2022/05/04 01:22:03;;;;;;;2.85;2.08;;;;;;;10.62;59.74;98725.66;5092460;28;20043;-58
2022/05/04 01:24:29;;;;;;;2.30;1.77;;;;;;;10.53;60.06;98726.81;5079921;28;20497;-58
2022/05/04 01:26:55;;;;;;;4.05;2.20;;;;;;;10.42;60.33;98735.00;5084226;28;20035;-58
2022/05/04 01:29:20;;;;;;;4.53;1.90;;;;;;;10.42;60.67;98735.00;5088215;28;20052;-58
2022/05/04 01:31:46;;;;;;;6.90;2.10;;;;;;;10.44;60.50;98742.72;5063720;28;20081;-59
2022/05/04 01:34:11;;;;;;;3.85;1.70;;;;;;;10.25;59.89;98733.00;5092468;28;20028;-59
2022/05/04 01:36:37;;;;;;;4.32;1.85;;;;;;;10.11;61.18;98733.47;5092427;28;20024;-60
2022/05/04 01:39:03;;;;;;;3.28;1.92;;;;;;;10.14;60.58;98737.69;5092881;28;20540;-60
2022/05/04 01:44:13;;;;;;;2.85;1.92;;;;;;;10.03;60.59;98735.47;5092628;28;20070;-59
2022/05/04 01:46:39;;;;;;;3.30;1.58;;;;;;;10.08;59.88;98736.16;5092263;28;20056;-60
2022/05/04 01:49:04;;;;;;;2.17;1.50;;;;;;;10.04;60.15;98739.75;5092372;28;20469;-60
2022/05/04 01:51:30;;;;;;;4.55;1.95;;;;;;;10.06;60.04;98737.97;5089546;28;20024;-60
2022/05/04 01:53:55;;;;;;;2.13;1.77;;;;;;;10.06;59.96;98742.28;5091302;28;20024;-59
2022/05/04 01:56:21;;;;;;;4.22;1.80;;;;;;;9.87;60.58;98742.09;5092453;28;20032;-58
2022/05/04 01:58:47;;;;;;;4.70;1.90;;;;;;;9.91;57.85;98744.50;5091772;28;20432;-58
2022/05/04 02:01:13;;;;;;;1.88;1.52;;;;;;;9.81;58.08;98751.72;5091840;28;20187;-59
2022/05/04 02:03:39;;;;;;;2.45;1.27;;;;;;;9.81;56.71;98762.06;5092304;28;20020;-60
2022/05/04 02:06:05;;;;;;;1.30;1.20;;;;;;;9.70;57.88;98748.66;5091897;28;20027;-59
2022/05/04 02:08:30;;;;;;;3.25;1.70;;;;;;;9.76;57.53;98765.69;5092079;28;20048;-59
2022/05/04 02:10:56;;;;;;;2.97;1.58;;;;;;;9.76;57.48;98766.56;5091569;28;20482;-59
2022/05/04 02:13:21;;;;;;;1.98;1.48;;;;;;;9.74;57.95;98768.34;5095060;28;20031;-60
2022/05/04 02:15:47;;;;;;;1.98;1.63;;;;;;;9.81;56.77;98777.59;5099007;28;20020;-59
2022/05/04 02:18:12;;;;;;;3.20;1.60;;;;;;;9.79;57.18;98786.28;5098669;28;20032;-59
2022/05/04 02:20:38;;;;;;;2.28;1.42;;;;;;;9.85;57.31;98781.75;5098417;28;20111;-58
2022/05/04 02:23:04;;;;;;;2.55;1.65;;;;;;;9.72;56.89;98783.06;5098431;28;20024;-58
2022/05/04 02:25:29;;;;;;;3.83;1.77;;;;;;;9.87;56.33;98783.47;5080607;28;20024;-59
2022/05/04 02:27:55;;;;;;;3.60;1.70;;;;;;;9.93;56.14;98775.47;5098547;28;20020;-58
2022/05/04 02:30:20;;;;;;;2.95;1.77;;;;;;;9.94;56.70;98772.00;5079862;28;20073;-58
2022/05/04 02:32:46;;;;;;;2.47;1.70;;;;;;;9.93;56.37;98778.06;5088442;28;20028;-59
2022/05/04 02:38:16;;;;;;;2.03;1.55;;;;;;;10.31;55.60;98778.50;4998612;28;20038;-60
2022/05/04 02:40:41;;;;;;;3.20;2.05;;;;;;;10.77;55.11;98781.22;4977251;28;20630;-59
2022/05/04 02:43:07;;;;;;;2.25;1.40;;;;;;;11.16;52.72;98772.81;5023496;28;20482;-59
2022/05/04 02:45:34;;;;;;;3.92;1.77;;;;;;;10.93;53.19;98779.75;5094518;28;20042;-57
2022/05/04 02:47:59;;;;;;;3.40;1.60;;;;;;;11.54;52.49;98778.25;5098463;28;20505;-57
2022/05/04 02:50:25;;;;;;;2.13;1.60;;;;;;;11.83;51.79;98784.00;5096841;28;20028;-58
2022/05/04 02:52:51;;;;;;;2.30;1.10;;;;;;;11.82;51.02;98784.94;5096373;28;20488;-58
2022/05/04 02:55:16;;;;;;;2.40;1.30;;;;;;;11.98;50.18;98795.53;5096974;28;20028;-59
2022/05/04 02:57:42;;;;;;;2.35;1.30;;;;;;;11.63;51.40;98797.78;5097573;28;20047;-59
2022/05/04 03:00:08;;;;;;;1.40;1.30;;;;;;;11.47;51.01;98797.56;5095161;28;20087;-59
2022/05/04 03:02:33;;;;;;;2.47;1.23;;;;;;;11.27;51.69;98796.56;5097800;28;20393;-59
2022/05/04 03:05:02;;;;;;;2.60;1.15;;;;;;;11.14;52.05;98803.16;5097973;28;20032;-59
2022/05/04 03:07:29;;;;;;;1.48;1.10;;;;;;;11.05;52.56;98810.34;5098688;28;20059;-60
2022/05/04 03:09:56;;;;;;;1.73;1.20;;;;;;;10.79;52.51;98811.34;5098184;28;20032;-59
2022/05/04 03:12:22;;;;;;;1.30;1.02;;;;;;;10.70;53.82;98816.84;5083473;28;20024;-59
2022/05/04 03:14:47;;;;;;;4.05;1.13;;;;;;;10.58;54.81;98822.47;5087967;28;20111;-59
2022/05/04 03:17:13;;;;;;;1.85;1.30;;;;;;;10.51;53.98;98832.19;5098245;28;20035;-59
2022/05/04 03:19:39;;;;;;;2.85;1.40;;;;;;;9.98;54.62;98794.28;5097946;28;20473;-58
2022/05/04 03:22:05;;;;;;;3.10;1.30;;;;;;;10.21;55.07;98841.84;5098101;28;20028;-58
2022/05/04 03:24:31;;;;;;;1.70;1.10;;;;;;;10.23;55.88;98840.84;5096333;28;20016;-59
2022/05/04 03:26:57;;;;;;;1.80;1.13;;;;;;;10.13;56.39;98848.09;5094534;28;20099;-59
2022/05/04 03:29:22;;;;;;;1.50;1.23;;;;;;;10.06;57.65;98849.22;5090251;28;20111;-57
2022/05/04 03:31:48;;;;;;;2.13;1.23;;;;;;;9.97;58.15;98847.75;5094475;28;20028;-58
2022/05/04 03:34:14;;;;;;;4.72;1.83;;;;;;;9.77;59.10;98844.97;5094898;28;20020;-58
2022/05/04 03:36:40;;;;;;;2.60;1.30;;;;;;;9.59;61.97;98851.56;5094651;28;20063;-58
2022/05/04 03:39:06;;;;;;;1.70;1.40;;;;;;;9.73;61.97;98864.06;5094522;28;20030;-58
2022/05/04 03:41:32;;;;;;;4.00;1.77;;;;;;;9.72;60.93;98834.78;5094484;28;20153;-59
2022/05/04 03:43:58;;;;;;;3.60;1.50;;;;;;;9.52;59.63;98819.91;5094409;28;20118;-59
2022/05/04 03:46:26;;;;;;;2.80;1.48;;;;;;;9.25;61.96;98775.94;5094691;28;20181;-59
2022/05/04 03:48:56;;;;;;;3.08;1.30;;;;;;;9.68;60.73;98825.44;5094239;28;20073;-58
2022/05/04 03:51:22;;;;;;;2.95;1.25;;;;;;;9.76;59.95;98818.28;5094176;28;20016;-59
2022/05/04 03:53:49;;;;;;;1.98;1.15;;;;;;;9.82;58.98;98812.06;5094424;28;20086;-59
2022/05/04 03:56:15;;;;;;;2.95;1.10;;;;;;;9.89;58.74;98823.03;5094475;28;20047;-59
2022/05/04 03:58:42;;;;;;;3.92;1.35;;;;;;;9.93;59.23;98830.66;5091574;28;20159;-58
2022/05/04 04:01:08;;;;;;;1.15;1.05;;;;;;;10.00;58.71;98826.97;5094037;28;20020;-59
2022/05/04 04:03:34;;;;;;;3.53;1.10;;;;;;;10.15;58.54;98828.19;5093894;28;20038;-59
2022/05/04 04:05:59;;;;;;;1.60;0.98;;;;;;;10.14;57.48;98834.25;5094253;28;20016;-59
2022/05/04 04:08:25;;;;;;;1.27;1.10;;;;;;;9.94;58.63;98842.69;5094308;28;20055;-59
2022/05/04 04:10:51;;;;;;;1.25;1.00;;;;;;;9.87;57.11;98846.34;5092239;28;20157;-59
2022/05/04 04:13:17;;;;;;;2.70;1.08;;;;;;;10.05;58.30;98838.88;5073615;28;20044;-59
2022/05/04 04:15:43;;;;;;;2.53;1.08;;;;;;;10.09;57.19;98841.34;5090834;28;20024;-59
2022/05/04 04:18:09;;;;;;;1.52;1.00;;;;;;;10.15;57.49;98838.53;5094088;28;20169;-59
2022/05/04 04:23:20;;;;;;;5.28;1.30;;;;;;;10.28;56.48;98848.50;5093718;28;20034;-59
2022/05/04 04:25:45;;;;;;;33.60;19.08;;;;;;;10.33;55.16;98841.41;5093457;28;20081;-59
2022/05/04 04:28:11;;;;;;;3.28;1.70;;;;;;;10.37;56.47;98840.44;5081274;28;20037;-58
2022/05/04 04:30:40;;;;;;;5.75;1.88;;;;;;;10.48;56.98;98842.66;5085449;28;20039;-59
2022/05/04 04:33:06;;;;;;;1.63;1.10;;;;;;;10.59;55.08;98837.97;5093498;28;20114;-59
2022/05/04 04:35:36;;;;;;;1.83;1.30;;;;;;;10.66;54.56;98825.63;5075000;28;20069;-59
2022/05/04 04:38:02;;;;;;;4.22;1.35;;;;;;;11.08;54.18;98855.22;5092676;28;20739;-61
2022/05/04 04:40:28;;;;;;;3.63;1.33;;;;;;;11.12;54.32;98855.03;5075031;28;20378;-59
2022/05/04 04:42:54;;;;;;;1.50;1.27;;;;;;;11.13;53.53;98853.28;5074827;28;20024;-60
2022/05/04 04:45:19;;;;;;;3.78;1.40;;;;;;;10.98;55.52;98860.72;5093579;28;20024;-60
2022/05/04 04:47:46;;;;;;;1.38;1.00;;;;;;;10.62;53.44;98865.50;5093134;28;20123;-59
2022/05/04 04:50:12;;;;;;;2.47;1.52;;;;;;;10.80;53.60;98846.72;5092281;28;20031;-60
2022/05/04 04:52:38;;;;;;;1.45;1.30;;;;;;;10.96;54.41;98859.06;5073447;28;20090;-60
2022/05/04 04:55:05;;;;;;;3.83;1.27;;;;;;;11.65;52.75;98853.03;5073018;28;20478;-59
2022/05/04 04:57:30;;;;;;;2.85;1.00;;;;;;;12.66;49.30;98863.63;5087771;28;20106;-59
2022/05/04 04:59:56;;;;;;;1.80;1.10;;;;;;;13.23;47.10;98855.06;5067670;28;20442;-59
2022/05/04 05:02:21;;;;;;;1.73;1.00;;;;;;;13.26;45.56;98873.94;5088392;28;20466;-59
2022/05/04 05:04:47;;;;;;;2.08;0.90;;;;;;;13.83;46.37;98873.09;5092888;28;20100;-59
2022/05/04 05:07:12;;;;;;;1.08;0.98;;;;;;;14.56;43.37;98866.91;5092336;28;20044;-60
2022/05/04 05:09:38;;;;;;;1.75;0.90;;;;;;;14.89;42.93;98863.50;5092937;28;20040;-60
2022/05/04 05:12:04;;;;;;;3.20;1.10;;;;;;;14.28;43.84;98863.94;5081317;28;20085;-61
2022/05/04 05:17:14;;;;;;;2.38;1.17;;;;;;;13.18;45.83;98881.28;5092537;28;20035;-60
2022/05/04 05:19:39;;;;;;;4.00;1.20;;;;;;;13.56;44.69;98877.84;5082227;28;20032;-60
2022/05/04 05:22:05;;;;;;;2.53;1.10;;;;;;;14.17;43.33;98884.47;5091815;28;20412;-60
2022/05/04 05:24:31;;;;;;;3.35;1.25;;;;;;;13.45;45.88;98865.31;5092592;28;20106;-59
2022/05/04 05:26:56;;;;;;;7.43;1.48;;;;;;;13.32;45.11;98888.44;5088756;28;20032;-59
2022/05/04 05:29:22;;;;;;;3.05;1.30;;;;;;;13.43;45.06;98882.78;5069205;28;20541;-59
2022/05/04 05:31:47;;;;;;;2.92;1.30;;;;;;;13.22;45.04;98871.56;5092318;28;20024;-58
2022/05/04 05:34:13;;;;;;;5.50;1.70;;;;;;;13.86;44.83;98872.94;5092558;28;20179;-59
2022/05/04 05:36:39;;;;;;;2.60;1.52;;;;;;;14.09;44.73;98869.19;5092020;28;20031;-60
2022/05/04 05:39:04;;;;;;;2.25;1.30;;;;;;;14.21;44.80;98878.19;5083427;28;20469;-60
2022/05/04 05:41:31;;;;;;;3.05;1.15;;;;;;;13.70;44.25;98883.25;5092134;28;20470;-59
2022/05/04 05:43:56;;;;;;;2.15;1.50;;;;;;;13.44;44.68;98897.47;5091786;28;20024;-58
2022/05/04 05:46:22;;;;;;;2.83;1.30;;;;;;;13.21;45.92;98896.72;5092437;28;20442;-59
2022/05/04 05:48:48;;;;;;;1.67;1.30;;;;;;;13.25;45.31;98898.28;5091327;28;20103;-59
2022/05/04 05:51:14;;;;;;;2.33;1.30;;;;;;;13.45;45.21;98902.59;5084638;28;20036;-59
2022/05/04 05:53:40;;;;;;;3.03;1.33;;;;;;;13.79;44.29;98894.97;5092191;28;20035;-59
2022/05/04 05:56:06;;;;;;;2.03;1.40;;;;;;;13.23;45.39;98901.84;5092256;28;20020;-59
2022/05/04 05:58:32;;;;;;;3.97;1.30;;;;;;;13.51;45.26;98898.88;5091989;28;20048;-60
2022/05/04 06:00:58;;;;;;;2.08;1.42;;;;;;;13.21;46.51;98899.34;5092133;28;20051;-59
2022/05/04 06:03:24;;;;;;;2.50;1.42;;;;;;;13.32;45.45;98904.03;5091817;28;20497;-59
2022/05/04 06:05:49;;;;;;;1.65;1.10;;;;;;;13.53;44.78;98897.03;5091602;28;20024;-60
2022/05/04 06:08:15;;;;;;;4.15;1.35;;;;;;;13.17;44.90;98904.72;5091771;28;20043;-60
2022/05/04 06:10:59;;;;;;;2.03;1.63;;;;;;;12.77;47.25;98921.16;5085587;28;20401;-60
2022/05/04 06:13:25;;;;;;;2.80;1.20;;;;;;;12.34;48.70;98909.13;5072534;28;20077;-57
2022/05/04 06:15:50;;;;;;;3.72;1.35;;;;;;;12.26;50.05;98920.66;5092047;28;20697;-57
2022/05/04 06:18:16;;;;;;;2.38;1.30;;;;;;;11.84;50.95;98926.66;5071372;28;20024;-59
2022/05/04 06:20:41;;;;;;;4.68;1.42;;;;;;;12.10;50.33;98932.59;5082789;28;20484;-61
2022/05/04 06:23:08;;;;;;;1.98;1.42;;;;;;;12.93;48.96;98926.53;5023006;28;20383;-60
2022/05/04 06:25:35;;;;;;;7.82;1.48;;;;;;;13.49;46.69;98926.69;5051779;28;20075;-60
2022/05/04 06:28:02;;;;;;;1.13;1.02;;;;;;;13.67;46.02;98919.81;5040826;28;20422;-61
2022/05/04 06:35:55;;;;;;;2.30;1.25;;;;;;;12.75;47.05;98929.94;5051315;28;20029;-60
2022/05/04 06:38:21;;;;;;;3.33;1.15;;;;;;;12.60;48.35;98947.03;5050005;28;20402;-59
2022/05/04 06:40:46;;;;;;;1.65;1.20;;;;;;;12.13;48.47;98953.22;5051748;28;20040;-59
2022/05/04 06:43:12;;;;;;;5.40;1.50;;;;;;;11.90;50.36;98961.91;5051644;28;20025;-59
2022/05/04 06:45:37;;;;;;;1.67;1.30;;;;;;;11.95;49.07;98954.78;5045471;28;20371;-60
2022/05/04 06:48:04;;;;;;;3.53;1.45;;;;;;;11.84;49.93;98962.13;5042990;28;20037;-60
2022/05/04 06:50:30;;;;;;;2.00;1.35;;;;;;;11.68;50.55;98969.63;5043303;28;20017;-60
2022/05/04 06:52:56;;;;;;;2.20;1.10;;;;;;;11.64;50.83;98973.25;5041567;28;20032;-59
2022/05/04 06:55:21;;;;;;;2.40;1.10;;;;;;;11.91;49.83;98981.72;5042126;28;20098;-59
2022/05/04 06:57:47;;;;;;;3.83;0.93;;;;;;;11.60;51.06;98979.44;5044779;28;20021;-59
2022/05/04 07:00:13;;;;;;;3.35;1.00;;;;;;;11.31;50.46;98974.41;5046246;28;20024;-59
2022/05/04 07:02:39;;;;;;;2.20;1.27;;;;;;;11.17;50.93;98982.72;5043543;28;20028;-59
2022/05/04 07:05:05;;;;;;;6.05;1.20;;;;;;;11.68;52.03;98993.81;5047563;28;20037;-59
2022/05/04 07:07:31;;;;;;;2.13;0.95;;;;;;;11.66;50.57;99000.00;5051554;28;20122;-59
2022/05/04 07:09:58;;;;;;;7.40;1.08;;;;;;;11.86;50.44;99001.84;5038520;28;20037;-59
2022/05/04 07:12:24;;;;;;;3.53;1.30;;;;;;;11.96;49.39;99004.97;5048788;28;20494;-59
2022/05/04 07:14:51;;;;;;;2.38;1.23;;;;;;;11.53;48.55;99010.81;5046288;28;20025;-59
2022/05/04 07:17:18;;;;;;;5.15;1.10;;;;;;;11.29;49.46;99016.88;5045029;28;20474;-60
2022/05/04 07:19:43;;;;;;;1.58;1.02;;;;;;;12.26;47.51;99018.50;5045932;28;20036;-60
2022/05/04 07:22:09;;;;;;;2.72;1.10;;;;;;;11.84;48.22;99022.66;5046262;28;20021;-59
2022/05/04 07:24:35;;;;;;;3.10;0.90;;;;;;;11.59;48.36;99033.06;5055947;28;20066;-58
2022/05/04 07:27:01;;;;;;;6.85;1.40;;;;;;;11.52;48.54;99037.63;5045237;28;20021;-60
2022/05/04 07:29:26;;;;;;;1.60;1.10;;;;;;;11.30;48.72;99036.69;5039673;28;20052;-59
2022/05/04 07:31:52;;;;;;;4.90;0.98;;;;;;;11.80;48.45;99034.03;5054414;28;20037;-60
2022/05/04 07:34:18;;;;;;;3.33;1.05;;;;;;;11.96;48.38;99033.50;5054531;28;20067;-59
2022/05/04 07:36:44;;;;;;;1.75;1.10;;;;;;;12.37;49.26;99054.41;5051324;28;20133;-60
2022/05/04 07:42:21;;;;;;;2.55;0.93;;;;;;;12.36;47.85;99037.16;5054103;28;20486;-60
2022/05/04 07:44:40;;;;;;;1.38;0.95;;;;;;;12.50;45.81;99054.75;5054164;28;20032;-60
2022/05/04 07:47:06;;;;;;;1.00;0.93;;;;;;;12.55;44.88;99051.09;5054189;28;20028;-59
2022/05/04 07:49:32;;;;;;;1.08;0.98;;;;;;;12.48;46.11;99052.22;5054658;28;20044;-59
2022/05/04 07:51:58;;;;;;;1.42;1.10;;;;;;;12.50;45.75;99076.41;5054118;28;20037;-58
2022/05/04 07:54:23;;;;;;;2.92;1.90;;;;;;;12.03;46.65;99084.28;5054103;28;20036;-59
2022/05/04 07:56:49;;;;;;;2.35;1.60;;;;;;;11.62;46.01;99082.22;5042484;28;20029;-59
2022/05/04 07:59:14;;;;;;;2.20;0.95;;;;;;;11.92;46.01;99079.44;5053991;28;20063;-58
2022/05/04 08:04:24;;;;;;;1.00;1.00;;;;;;;12.32;44.52;99087.50;5053974;28;20397;-59
2022/05/04 08:06:50;;;;;;;3.13;1.48;;;;;;;11.97;46.05;99084.47;5053776;28;20045;-59
2022/05/04 08:09:16;;;;;;;2.20;1.40;;;;;;;11.89;45.33;99082.97;5052746;28;20033;-59
2022/05/04 08:11:43;;;;;;;1.85;1.00;;;;;;;11.66;46.09;99073.44;5053389;28;20047;-59
2022/05/04 08:14:09;;;;;;;3.55;1.30;;;;;;;11.97;46.35;99076.69;5053740;28;20091;-60
2022/05/04 08:16:35;;;;;;;2.67;1.10;;;;;;;12.10;45.97;99075.34;5053814;28;20057;-60
2022/05/04 08:19:01;;;;;;;2.25;1.42;;;;;;;11.80;45.63;99082.47;5053390;28;20052;-60
2022/05/04 08:21:27;;;;;;;1.25;1.00;;;;;;;11.84;44.74;99079.72;5053108;28;20470;-59
2022/05/04 08:23:52;;;;;;;1.95;1.00;;;;;;;11.69;45.06;99085.47;5053674;28;20025;-60
2022/05/04 08:26:18;;;;;;;6.35;1.27;;;;;;;11.32;46.05;99081.56;5053465;28;20440;-60
2022/05/04 08:28:44;;;;;;;1.30;1.20;;;;;;;11.28;46.55;99090.34;5052899;28;20037;-59
2022/05/04 08:31:09;;;;;;;2.97;1.02;;;;;;;11.11;45.31;99088.31;5051806;28;20025;-58
2022/05/04 08:33:35;;;;;;;4.25;1.30;;;;;;;11.19;46.51;99094.94;5053113;28;20025;-58
2022/05/04 08:36:01;;;;;;;2.17;1.50;;;;;;;11.01;47.02;99092.94;5053137;28;20489;-59
2022/05/04 08:38:27;;;;;;;1.52;1.00;;;;;;;10.87;45.87;99103.75;5053302;28;20029;-59
2022/05/04 08:40:56;;;;;;;1.85;1.50;;;;;;;10.83;46.86;99107.34;5053158;28;20037;-59
2022/05/04 08:43:26;;;;;;;2.05;1.25;;;;;;;10.70;47.16;99107.75;5053071;28;20041;-59
2022/05/04 08:45:53;;;;;;;2.10;1.17;;;;;;;10.70;45.02;99112.94;5053092;28;20027;-59
2022/05/04 08:48:21;;;;;;;1.58;1.20;;;;;;;10.50;45.08;99105.78;5053178;28;20131;-59
2022/05/04 08:50:47;;;;;;;1.83;0.98;;;;;;;10.70;45.31;99119.81;5053036;28;20167;-59
2022/05/04 08:53:13;;;;;;;2.45;1.27;;;;;;;10.63;45.40;99110.56;5052585;28;20119;-59
2022/05/04 08:55:41;;;;;;;1.88;1.00;;;;;;;10.22;46.48;99107.44;5052690;28;20048;-59
2022/05/04 08:58:07;;;;;;;1.42;1.10;;;;;;;10.90;45.49;99115.78;5052921;28;20812;-59
2022/05/04 09:00:32;;;;;;;1.20;1.08;;;;;;;10.79;46.03;99109.19;5052980;28;20025;-59
2022/05/04 09:02:58;;;;;;;1.90;1.38;;;;;;;10.73;46.73;99108.53;5052790;28;20148;-59
2022/05/04 09:05:27;;;;;;;4.00;1.42;;;;;;;10.15;45.92;99067.97;5052774;28;20032;-59
2022/05/04 09:07:57;;;;;;;37.40;2.67;;;;;;;10.35;47.42;99164.03;5052757;28;20057;-59
2022/05/04 09:10:24;;;;;;;10.65;1.88;;;;;;;10.09;50.24;99188.03;5053123;28;20032;-59
2022/05/04 09:12:52;;;;;;;6.00;1.15;;;;;;;8.96;53.23;99135.75;5052160;28;20426;-59
2022/05/04 09:15:26;;;;;;;2.50;0.90;;;;;;;9.13;53.12;99185.25;5043749;28;20037;-59
2022/05/04 09:18:00;;;;;;;1.42;1.17;;;;;;;9.15;53.68;99167.19;5052604;28;20165;-59
2022/05/04 09:20:55;;;;;;;1.48;1.10;;;;;;;9.19;52.54;99196.34;5041299;28;20035;-60
2022/05/04 09:23:29;;;;;;;1.77;1.15;;;;;;;8.87;54.57;99135.97;5051594;28;20029;-59
2022/05/04 09:26:07;;;;;;;3.92;1.02;;;;;;;9.35;51.89;99196.81;5052383;28;20043;-60
2022/05/04 09:28:34;;;;;;;1.75;1.00;;;;;;;9.37;52.00;99172.66;5044583;28;20029;-60
2022/05/04 09:31:05;;;;;;;2.47;1.17;;;;;;;9.58;50.51;99186.78;5049222;28;20032;-59
2022/05/04 09:33:35;;;;;;;3.38;1.40;;;;;;;9.76;49.35;99185.47;5048421;28;20029;-59
2022/05/04 09:36:05;;;;;;;2.03;1.13;;;;;;;9.89;50.90;99190.28;5052485;28;20033;-60
2022/05/04 09:46:52;;;;;;;2.05;1.42;;;;;;;10.33;48.50;99176.13;5051973;28;20079;-60
2022/05/04 09:49:20;;;;;;;3.83;1.60;;;;;;;10.17;46.97;99118.78;5052063;28;20025;-59
2022/05/04 09:51:53;;;;;;;1.85;1.27;;;;;;;10.49;48.72;99180.91;5051861;28;20028;-59
2022/05/04 09:54:30;;;;;;;4.82;1.60;;;;;;;10.65;46.01;99187.31;5051254;28;20500;-61
2022/05/04 09:56:57;;;;;;;1.98;1.35;;;;;;;10.70;46.10;99169.03;5051738;28;20035;-59
2022/05/04 09:59:25;;;;;;;2.92;1.80;;;;;;;10.65;46.70;99125.16;5051899;28;20056;-59
2022/05/04 10:01:52;;;;;;;8.40;2.03;;;;;;;11.12;46.23;99170.34;5050315;28;20478;-60
2022/05/04 10:04:20;;;;;;;5.25;1.70;;;;;;;11.32;46.71;99167.94;5051882;28;20127;-59
2022/05/04 10:06:48;;;;;;;3.92;1.70;;;;;;;11.01;47.18;99105.91;5051405;28;20045;-60
2022/05/04 10:09:14;;;;;;;2.17;1.58;;;;;;;11.53;46.93;99165.56;5051744;28;20047;-59
2022/05/04 10:11:39;;;;;;;5.85;1.60;;;;;;;11.48;45.04;99168.28;5051822;28;20037;-60
2022/05/04 10:14:17;;;;;;;3.90;1.60;;;;;;;11.67;45.56;99160.75;5051389;28;20083;-60
2022/05/04 10:17:00;;;;;;;3.20;1.65;;;;;;;11.90;42.97;99153.91;5051556;28;20120;-59
2022/05/04 10:19:50;;;;;;;5.40;1.80;;;;;;;11.62;42.03;99157.44;5037821;28;20029;-60
2022/05/04 10:22:29;;;;;;;4.75;1.60;;;;;;;11.74;44.36;99172.59;5051276;28;20067;-60
2022/05/04 10:24:58;;;;;;;6.57;1.60;;;;;;;11.46;43.66;99154.53;5045832;28;20498;-59
2022/05/04 10:27:28;;;;;;;3.03;1.70;;;;;;;11.27;44.22;99111.97;5037465;28;20029;-61
2022/05/04 10:32:56;;;;;;;6.68;2.17;;;;;;;11.06;43.75;99197.31;5051472;28;20025;-60
2022/05/04 10:35:27;;;;;;;4.05;1.70;;;;;;;10.47;42.29;99167.97;5054839;28;20020;-59
2022/05/04 10:37:53;;;;;;;3.83;1.50;;;;;;;10.46;42.19;99232.75;5055423;28;20033;-59
2022/05/04 10:40:44;;;;;;;3.03;1.33;;;;;;;10.42;43.53;99224.22;5055065;28;20032;-60
2022/05/04 10:43:16;;;;;;;2.13;1.30;;;;;;;10.47;44.95;99209.41;5054802;28;20441;-60
2022/05/04 10:45:43;;;;;;;1.33;1.00;;;;;;;10.34;41.85;99226.19;5049215;28;20033;-59
2022/05/04 10:48:24;;;;;;;4.93;1.30;;;;;;;10.55;40.64;99231.66;5044399;28;20021;-59
2022/05/04 10:50:52;;;;;;;2.58;1.08;;;;;;;10.81;40.49;99234.31;5054932;28;20394;-60
2022/05/04 10:53:23;;;;;;;0.80;0.80;;;;;;;10.64;39.18;99237.41;5055045;28;20025;-59
2022/05/04 10:56:01;;;;;;;1.75;1.13;;;;;;;10.78;38.77;99233.56;5054063;28;20474;-59
2022/05/04 10:58:36;;;;;;;2.05;1.13;;;;;;;10.76;37.93;99246.56;5055223;28;20037;-60
2022/05/04 11:01:12;;;;;;;2.58;1.08;;;;;;;10.90;38.92;99234.94;5054786;28;20112;-60
2022/05/04 11:04:02;;;;;;;1.65;1.10;;;;;;;10.75;38.66;99260.41;5054633;28;20111;-59
2022/05/04 11:06:44;;;;;;;2.72;1.00;;;;;;;10.82;40.01;99242.94;5054849;28;20116;-60
2022/05/04 11:09:12;;;;;;;2.65;1.30;;;;;;;10.55;40.72;99242.03;5054806;28;20394;-61
2022/05/04 11:11:42;;;;;;;4.68;1.42;;;;;;;10.20;41.24;99239.47;5054602;28;20063;-60
2022/05/04 11:14:09;;;;;;;6.80;1.50;;;;;;;10.52;40.54;99254.16;5054446;28;20105;-60
2022/05/04 11:16:36;;;;;;;1.77;1.20;;;;;;;10.73;41.18;99249.25;5053610;28;20025;-59
2022/05/04 11:19:03;;;;;;;1.48;1.20;;;;;;;10.66;40.23;99237.34;5054401;28;20037;-59
2022/05/04 11:21:29;;;;;;;3.65;1.50;;;;;;;10.68;39.97;99243.34;5053686;28;20090;-60
2022/05/04 11:23:59;;;;;;;4.90;1.50;;;;;;;10.46;39.98;99176.66;5053905;28;20033;-59
2022/05/04 11:26:27;;;;;;;1.65;1.40;;;;;;;10.52;39.95;99186.81;5044358;28;20037;-59
2022/05/04 11:28:54;;;;;;;2.50;1.15;;;;;;;10.78;40.26;99187.78;5052827;28;20040;-59
2022/05/04 11:31:21;;;;;;;2.47;1.45;;;;;;;11.07;40.21;99234.44;5053560;28;20040;-59
2022/05/04 11:33:48;;;;;;;2.55;1.30;;;;;;;11.04;39.49;99240.56;5054205;28;20380;-59
2022/05/04 11:36:17;;;;;;;2.58;1.40;;;;;;;11.19;40.09;99236.66;5053652;28;20029;-59
2022/05/04 11:38:46;;;;;;;1.67;1.58;;;;;;;11.34;40.11;99254.31;5054121;28;20038;-60
2022/05/04 11:41:13;;;;;;;4.80;1.60;;;;;;;11.10;39.44;99255.94;5053949;28;20052;-60
2022/05/04 11:43:39;;;;;;;2.30;1.55;;;;;;;10.64;42.20;99268.47;5053701;28;20508;-60
2022/05/04 11:46:07;;;;;;;1.33;1.23;;;;;;;10.59;43.11;99262.59;5053812;28;20115;-59
2022/05/04 11:48:35;;;;;;;2.80;1.63;;;;;;;10.29;45.13;99267.69;5054168;28;20029;-60
2022/05/04 11:51:01;;;;;;;5.00;1.83;;;;;;;10.32;46.13;99264.19;5054131;28;20091;-60
2022/05/04 11:53:27;;;;;;;4.90;1.50;;;;;;;10.41;46.41;99258.78;5053909;28;20025;-59
2022/05/04 11:55:52;;;;;;;4.00;1.60;;;;;;;10.32;46.69;99256.41;5051989;28;20112;-59
2022/05/04 11:58:18;;;;;;;6.10;1.67;;;;;;;10.65;45.82;99266.75;5054221;28;20386;-60
2022/05/04 12:00:43;;;;;;;2.97;1.77;;;;;;;10.58;44.09;99265.22;5053801;28;20040;-60
2022/05/04 12:03:10;;;;;;;6.22;1.65;;;;;;;10.57;44.06;99260.94;5053742;28;20474;-59
2022/05/04 12:05:39;;;;;;;2.33;1.77;;;;;;;10.77;43.90;99261.19;5053949;28;20031;-59
2022/05/04 12:08:06;;;;;;;5.80;1.40;;;;;;;11.10;41.96;99268.03;5053977;28;20102;-59